Time;durP1;ratioP1;P1;durP2;ratioP2;P2;SDS_P1;SDS_P2;PMS_P1;PMS_P2;Temp;Humidity;BMP_temperature;BMP_pressure;BME280_temperature;BME280_humidity;BME280_pressure;Samples;Min_cycle;Max_cycle;Signal;HPM_P1;HPM_P2
2022/03/13 00:04:34;;;;;;;64.15;24.75;;;;;;;4.76;35.69;100203.86;4406554;80;43832;-79
2022/03/13 00:10:35;;;;;;;67.78;25.02;;;;;;;5.33;34.60;100199.53;4321674;82;43810;-79
2022/03/13 00:16:37;;;;;;;62.35;25.82;;;;;;;5.21;34.75;100201.20;4365979;81;42879;-79
2022/03/13 00:22:39;;;;;;;63.38;25.43;;;;;;;5.28;34.50;100206.21;4361490;81;43337;-78
2022/03/13 00:28:41;;;;;;;66.67;26.23;;;;;;;5.23;34.76;100197.05;4384031;80;42976;-78
2022/03/13 00:34:42;;;;;;;66.02;25.30;;;;;;;5.03;34.55;100196.86;4353489;80;43363;-78
2022/03/13 00:40:48;;;;;;;66.50;28.00;;;;;;;4.76;35.23;100195.86;4417302;80;43740;-81
2022/03/13 00:46:46;;;;;;;69.92;26.70;;;;;;;4.69;35.73;100193.03;4408285;80;43921;-80
2022/03/13 00:52:48;;;;;;;62.55;24.92;;;;;;;4.56;35.56;100190.31;4444556;80;43728;-80
2022/03/13 00:58:49;;;;;;;65.52;26.40;;;;;;;4.38;36.13;100190.95;4450351;80;43042;-78
2022/03/13 01:04:51;;;;;;;62.50;24.10;;;;;;;4.53;35.84;100184.48;4368799;81;43701;-79
2022/03/13 01:10:53;;;;;;;68.62;27.25;;;;;;;4.40;36.57;100191.62;4365133;81;44501;-78
2022/03/13 01:17:05;;;;;;;64.82;25.95;;;;;;;3.98;37.42;100187.48;4465255;80;42947;-78
2022/03/13 01:23:08;;;;;;;67.05;27.58;;;;;;;4.18;36.90;100177.91;4447007;80;43408;-79
2022/03/13 01:29:14;;;;;;;69.05;26.15;;;;;;;3.99;37.09;100174.99;4382959;81;43611;-79
2022/03/13 01:35:20;;;;;;;;;;;;;;;3.94;36.78;100164.01;4418912;80;28532;-78
2022/03/13 01:41:24;;;;;;;71.45;28.30;;;;;;;3.73;37.06;100164.73;4382506;81;44091;-78
2022/03/13 01:47:27;;;;;;;72.85;27.35;;;;;;;3.96;36.50;100154.03;4392432;80;44095;-86
2022/03/13 01:53:28;;;;;;;66.00;27.25;;;;;;;3.88;36.79;100149.00;4447117;78;43381;-78
2022/03/13 01:59:30;;;;;;;74.32;28.67;;;;;;;3.79;37.06;100139.31;4354355;80;44402;-76
2022/03/13 02:05:34;;;;;;;74.22;28.95;;;;;;;3.62;37.78;100135.75;4348122;80;44110;-79
2022/03/13 02:11:38;;;;;;;73.90;28.13;;;;;;;4.46;36.25;100132.37;4444406;80;28529;-78
2022/03/13 02:17:39;;;;;;;73.42;28.25;;;;;;;4.04;37.00;100123.47;4421597;78;44157;-77
2022/03/13 02:23:41;;;;;;;72.85;28.67;;;;;;;3.76;37.37;100123.69;4330828;80;44131;-75
2022/03/13 02:29:42;;;;;;;75.85;29.15;;;;;;;3.71;37.61;100121.50;4371977;81;43713;-76
2022/03/13 02:35:58;;;;;;;77.27;28.52;;;;;;;3.52;37.78;100129.23;4373472;81;43681;-76
2022/03/13 02:42:00;;;;;;;77.25;29.35;;;;;;;3.55;37.82;100135.55;4352969;81;43693;-77
2022/03/13 02:48:06;;;;;;;75.83;28.67;;;;;;;3.61;37.79;100136.75;4350898;81;43673;-78
2022/03/13 02:54:08;;;;;;;83.40;30.60;;;;;;;3.33;38.91;100126.27;4336684;81;43031;-80
2022/03/13 03:00:11;;;;;;;76.22;27.75;;;;;;;3.61;38.15;100128.28;4357171;81;43707;-78
2022/03/13 03:06:13;;;;;;;78.70;28.40;;;;;;;3.65;37.90;100126.14;4350770;81;43717;-78
2022/03/13 03:12:14;;;;;;;77.25;29.07;;;;;;;3.57;38.49;100129.58;4354735;81;43484;-78
2022/03/13 03:18:16;;;;;;;72.03;28.40;;;;;;;3.21;39.11;100131.86;4374158;81;44193;-77
2022/03/13 03:24:22;;;;;;;74.65;27.32;;;;;;;3.15;39.67;100124.53;4366400;80;44143;-77
2022/03/13 03:30:27;;;;;;;74.67;27.60;;;;;;;3.28;39.03;100126.77;4365031;80;44168;-77
2022/03/13 03:36:28;;;;;;;79.62;28.50;;;;;;;3.14;39.73;100122.02;4338066;80;28485;-79
2022/03/13 03:42:29;;;;;;;75.08;27.77;;;;;;;3.30;39.21;100125.27;4359652;81;44127;-78
2022/03/13 03:48:31;;;;;;;76.07;28.55;;;;;;;3.22;39.43;100127.39;4374102;81;44072;-81
2022/03/13 03:54:33;;;;;;;67.72;26.07;;;;;;;3.12;40.01;100121.34;4355050;81;43986;-79
2022/03/13 04:00:35;;;;;;;78.83;27.80;;;;;;;3.41;39.69;100120.20;4331543;81;43789;-79
2022/03/13 04:06:38;;;;;;;78.20;28.15;;;;;;;3.47;39.39;100120.39;4347811;81;43743;-79
2022/03/13 04:12:40;;;;;;;73.52;28.35;;;;;;;2.89;40.35;100109.89;4363743;80;44400;-77
2022/03/13 04:18:41;;;;;;;72.85;27.85;;;;;;;3.09;39.82;100117.67;4389181;80;44140;-77
2022/03/13 04:24:43;;;;;;;76.35;28.62;;;;;;;3.24;40.23;100106.80;4431530;78;43669;-75
2022/03/13 04:30:47;;;;;;;80.10;28.50;;;;;;;3.16;40.02;100120.88;4435653;80;43757;-80
2022/03/13 04:36:49;;;;;;;68.92;25.72;;;;;;;3.31;40.03;100124.28;4448004;80;42885;-80
2022/03/13 04:42:50;;;;;;;81.82;30.05;;;;;;;2.69;40.89;100136.63;4344080;81;43109;-79
2022/03/13 04:48:53;;;;;;;73.35;29.20;;;;;;;2.81;40.82;100130.56;4362777;81;44143;-80
2022/03/13 04:54:54;;;;;;;73.42;26.68;;;;;;;2.69;41.17;100134.44;4378728;80;44091;-77
2022/03/13 05:00:55;;;;;;;70.57;27.60;;;;;;;2.75;41.12;100120.56;4347326;81;44129;-77
2022/03/13 05:06:58;;;;;;;73.80;27.75;;;;;;;2.87;41.20;100110.03;4321700;81;44161;-81
2022/03/13 05:12:59;;;;;;;75.22;27.58;;;;;;;2.88;40.97;100113.54;4278679;81;44101;-82
2022/03/13 05:19:01;;;;;;;66.62;26.70;;;;;;;3.16;40.56;100119.55;4366577;81;43638;-82
2022/03/13 05:25:04;;;;;;;71.42;28.32;;;;;;;2.90;41.79;100130.15;4271736;83;44145;-81
2022/03/13 05:31:06;;;;;;;69.77;27.82;;;;;;;3.27;41.14;100134.89;4360080;81;44100;-82
2022/03/13 05:37:08;;;;;;;73.15;29.70;;;;;;;3.66;40.29;100137.12;4364104;81;44145;-80
2022/03/13 05:43:11;;;;;;;75.83;27.75;;;;;;;3.96;40.01;100144.72;4334868;81;44094;-79
2022/03/13 05:49:14;;;;;;;69.82;28.10;;;;;;;4.09;40.32;100145.60;4355177;81;28551;-81
2022/03/13 05:55:18;;;;;;;72.32;27.80;;;;;;;4.42;40.04;100150.50;4355358;81;44101;-79
2022/03/13 06:01:19;;;;;;;71.65;28.27;;;;;;;4.89;39.25;100150.89;4316662;80;44119;-79
2022/03/13 06:07:21;;;;;;;71.57;28.52;;;;;;;5.11;39.52;100151.22;4375145;81;44138;-80
2022/03/13 06:13:22;;;;;;;69.32;28.20;;;;;;;5.06;39.69;100150.91;4374523;80;44232;-79
2022/03/13 06:19:24;;;;;;;68.07;27.42;;;;;;;5.65;39.12;100156.45;4367675;81;43796;-78
2022/03/13 06:25:25;;;;;;;70.75;29.48;;;;;;;5.74;39.56;100148.76;4370002;80;44117;-79
2022/03/13 06:31:27;;;;;;;77.58;30.48;;;;;;;6.30;38.89;100154.58;4354042;80;43493;-81
2022/03/13 06:37:28;;;;;;;70.15;29.65;;;;;;;6.49;38.71;100157.29;4374220;81;44060;-79
2022/03/13 06:43:30;;;;;;;76.33;30.12;;;;;;;6.76;38.66;100164.44;4379448;80;43300;-82
2022/03/13 06:49:31;;;;;;;74.10;29.30;;;;;;;7.01;38.65;100166.94;4357738;80;44109;-84
2022/03/13 06:55:32;;;;;;;74.77;31.37;;;;;;;7.18;38.45;100172.13;4371691;80;44182;-81
2022/03/13 07:01:36;;;;;;;79.75;31.97;;;;;;;7.46;37.81;100172.39;4366155;80;42873;-79
2022/03/13 07:07:37;;;;;;;74.10;30.85;;;;;;;8.00;37.28;100170.95;4328516;82;44091;-83
2022/03/13 07:13:40;;;;;;;75.17;31.62;;;;;;;8.27;36.81;100178.00;4335310;80;43611;-87
2022/03/13 07:19:43;;;;;;;78.20;32.67;;;;;;;8.47;36.55;100175.03;4341833;82;42968;-85
2022/03/13 07:25:45;;;;;;;74.62;30.45;;;;;;;8.62;36.18;100174.18;4336674;82;43260;-86
2022/03/13 07:31:47;;;;;;;73.02;31.70;;;;;;;8.85;36.30;100170.48;4323606;82;44064;-83
2022/03/13 07:37:48;;;;;;;78.47;32.17;;;;;;;8.72;36.12;100172.55;4425731;79;43038;-82
2022/03/13 07:43:49;;;;;;;88.87;35.10;;;;;;;9.11;36.16;100160.53;4404381;79;44439;-82
2022/03/13 07:49:51;;;;;;;93.33;39.67;;;;;;;9.46;35.07;100168.63;4439916;79;44452;-82
2022/03/13 07:55:56;;;;;;;120.70;46.37;;;;;;;8.71;35.13;100177.59;4420766;79;28486;-81
2022/03/13 08:01:58;;;;;;;117.65;46.98;;;;;;;9.31;33.69;100167.88;4403945;79;28504;-83
2022/03/13 08:07:59;;;;;;;117.42;48.48;;;;;;;9.90;31.98;100164.44;4367466;80;28562;-81
2022/03/13 08:14:05;;;;;;;105.40;43.78;;;;;;;10.36;32.11;100161.63;4441385;78;28506;-82
2022/03/13 08:20:08;;;;;;;109.97;46.75;;;;;;;10.80;31.18;100167.56;4364065;80;28581;-84
2022/03/13 08:26:09;;;;;;;114.65;46.55;;;;;;;10.43;31.12;100185.87;4369775;80;28482;-82
2022/03/13 08:32:11;;;;;;;110.40;48.13;;;;;;;10.76;31.47;100182.97;4451325;78;28442;-84
2022/03/13 08:38:13;;;;;;;113.42;46.53;;;;;;;11.15;30.70;100180.83;4446841;79;28501;-84
2022/03/13 08:44:14;;;;;;;102.85;43.30;;;;;;;11.54;30.14;100164.03;4394593;79;28524;-88
2022/03/13 08:50:16;;;;;;;100.62;42.30;;;;;;;11.02;29.75;100166.03;4388884;79;28515;-86
2022/03/13 08:56:20;;;;;;;95.70;40.03;;;;;;;11.25;29.98;100164.28;4395853;79;28493;-86
2022/03/13 09:02:24;;;;;;;90.53;38.98;;;;;;;11.32;29.71;100148.11;4400541;79;28641;-90
2022/03/13 09:08:29;;;;;;;82.72;34.80;;;;;;;11.51;29.58;100156.38;4414883;80;28598;-87
2022/03/13 09:14:39;;;;;;;71.00;32.15;;;;;;;11.03;28.79;100164.99;4374622;80;28563;-90
2022/03/13 09:20:38;;;;;;;70.75;32.33;;;;;;;11.67;28.53;100160.49;4377694;80;28535;-85
2022/03/13 09:26:43;;;;;;;74.25;32.42;;;;;;;11.39;28.41;100157.52;4325199;81;28484;-82
2022/03/13 09:32:44;;;;;;;61.45;26.87;;;;;;;10.99;28.95;100171.83;4351191;80;28524;-88
2022/03/13 09:38:46;;;;;;;57.55;25.08;;;;;;;11.41;28.32;100163.52;4350312;81;28463;-82
2022/03/13 09:44:50;;;;;;;62.80;25.95;;;;;;;10.85;27.80;100157.53;4377348;81;28537;-79
2022/03/13 09:50:52;;;;;;;43.90;19.85;;;;;;;11.59;27.95;100131.89;4346349;81;28535;-77
2022/03/13 09:56:54;;;;;;;42.50;19.07;;;;;;;11.55;26.90;100136.88;4361726;81;28535;-77
2022/03/13 10:02:56;;;;;;;33.40;15.80;;;;;;;11.37;26.13;100126.76;4371564;81;28529;-76
2022/03/13 10:08:57;;;;;;;31.05;14.30;;;;;;;11.67;25.87;100128.98;4388164;79;28517;-76
2022/03/13 10:15:06;;;;;;;31.65;14.55;;;;;;;11.45;25.82;100129.74;4367227;79;28543;-77
2022/03/13 10:21:12;;;;;;;33.38;15.48;;;;;;;11.88;25.27;100120.84;4370463;81;28533;-77
2022/03/13 10:27:18;;;;;;;28.38;12.53;;;;;;;12.04;25.22;100112.30;4377100;79;28547;-76
2022/03/13 10:33:19;;;;;;;36.60;18.12;;;;;;;11.74;25.44;100111.44;4388207;79;28530;-76
2022/03/13 10:39:21;;;;;;;41.48;18.17;;;;;;;11.90;25.72;100108.79;4382842;79;28528;-76
2022/03/13 10:45:49;;;;;;;35.40;16.15;;;;;;;12.16;25.14;100103.52;4438022;80;28518;-76
2022/03/13 10:51:45;;;;;;;32.50;14.90;;;;;;;12.02;24.61;100104.95;4337016;81;28476;-76
2022/03/13 10:57:52;;;;;;;24.00;11.20;;;;;;;12.15;24.26;100103.22;4365623;80;28481;-76
2022/03/13 11:04:00;;;;;;;27.77;12.18;;;;;;;12.32;22.90;100096.30;4407187;80;28538;-76
2022/03/13 11:10:03;;;;;;;23.55;10.35;;;;;;;12.22;22.17;100106.19;4419023;80;28481;-76
2022/03/13 11:16:06;;;;;;;22.85;10.13;;;;;;;12.62;22.76;100098.89;4419079;80;28558;-76
2022/03/13 11:22:08;;;;;;;19.15;7.33;;;;;;;12.80;21.28;100100.83;4429012;80;28485;-76
2022/03/13 11:28:09;;;;;;;18.73;9.08;;;;;;;12.70;19.85;100093.23;4417761;79;28523;-76
2022/03/13 11:34:15;;;;;;;18.27;8.08;;;;;;;12.48;20.71;100091.41;4348677;79;28582;-77
2022/03/13 11:40:21;;;;;;;18.15;8.13;;;;;;;12.73;21.00;100081.19;4357460;81;28527;-75
2022/03/13 11:46:43;;;;;;;11.00;5.33;;;;;;;13.51;20.79;100067.68;4356772;80;28527;-76
2022/03/13 11:52:45;;;;;;;12.30;4.92;;;;;;;13.63;18.64;100066.41;4333021;80;28545;-76
2022/03/13 11:58:52;;;;;;;15.95;6.60;;;;;;;13.67;18.55;100064.09;4368723;81;28484;-77
2022/03/13 12:04:59;;;;;;;13.88;6.67;;;;;;;13.58;19.03;100058.14;4420919;80;28496;-76
2022/03/13 12:11:00;;;;;;;11.90;5.45;;;;;;;13.45;19.08;100044.29;4419308;80;28476;-77
2022/03/13 12:17:08;;;;;;;14.40;8.08;;;;;;;13.32;18.71;100044.38;4445849;80;28522;-77
2022/03/13 12:23:09;;;;;;;19.05;9.70;;;;;;;13.35;19.78;100038.55;4427033;80;28540;-85
2022/03/13 12:29:17;;;;;;;18.60;9.65;;;;;;;13.47;20.31;100038.64;4451248;80;28499;-80
2022/03/13 12:35:18;;;;;;;17.45;8.60;;;;;;;13.42;20.81;100035.77;4455019;80;28517;-79
2022/03/13 12:41:24;;;;;;;16.50;7.75;;;;;;;13.51;20.54;100037.16;4447605;80;28472;-79
2022/03/13 12:47:29;;;;;;;19.07;8.50;;;;;;;13.74;20.43;100041.03;4430029;80;28487;-82
2022/03/13 12:53:31;;;;;;;18.92;8.98;;;;;;;13.66;19.81;100033.53;4427125;80;28491;-82
2022/03/13 12:59:46;;;;;;;22.48;10.10;;;;;;;13.91;19.87;100025.00;4445349;80;28516;-83
2022/03/13 13:05:52;;;;;;;17.60;8.78;;;;;;;13.85;19.85;100028.09;4447320;80;28675;-83
2022/03/13 13:11:54;;;;;;;19.82;8.85;;;;;;;13.92;19.76;100021.24;4438102;80;28600;-82
2022/03/13 13:17:55;;;;;;;20.50;9.33;;;;;;;14.07;19.77;100008.15;4453400;79;28560;-85
2022/03/13 13:23:57;;;;;;;16.50;8.43;;;;;;;14.44;19.48;100023.41;4447705;79;28457;-86
2022/03/13 13:30:17;;;;;;;17.70;8.38;;;;;;;14.08;19.53;100018.42;4455535;80;28527;-88
2022/03/13 13:36:22;;;;;;;15.15;7.35;;;;;;;14.50;19.57;100010.28;4433882;80;28477;-86
2022/03/13 13:42:23;;;;;;;14.13;6.55;;;;;;;14.86;19.21;100006.82;4448114;80;28543;-87
2022/03/13 13:48:28;;;;;;;15.75;7.42;;;;;;;14.07;19.38;100010.85;4456953;80;28567;-83
2022/03/13 13:54:35;;;;;;;13.75;6.67;;;;;;;14.62;19.50;100006.77;4455900;80;28481;-87
2022/03/13 14:00:39;;;;;;;17.05;8.33;;;;;;;14.13;19.61;100015.02;4428100;79;28496;-85
2022/03/13 14:06:40;;;;;;;15.40;7.05;;;;;;;14.38;19.42;100005.93;4418552;80;28566;-85
2022/03/13 14:12:42;;;;;;;14.85;7.12;;;;;;;14.13;19.89;100009.10;4437638;80;28527;-84
2022/03/13 14:18:46;;;;;;;13.80;7.12;;;;;;;14.77;20.14;100000.91;4452290;80;28557;-86
2022/03/13 14:24:47;;;;;;;10.58;5.05;;;;;;;14.51;19.25;100007.06;4445528;80;28561;-85
2022/03/13 14:30:49;;;;;;;10.60;5.90;;;;;;;14.22;19.20;100012.30;4435779;80;28515;-83
2022/03/13 14:36:56;;;;;;;13.75;7.05;;;;;;;14.73;18.53;99994.34;4443428;80;28437;-89
2022/03/13 14:42:54;;;;;;;12.73;5.35;;;;;;;14.66;18.14;99994.94;4452250;80;28489;-87
2022/03/13 14:48:56;;;;;;;11.33;5.30;;;;;;;14.83;17.80;99991.86;4451803;80;28507;-87
2022/03/13 14:55:00;;;;;;;10.18;5.05;;;;;;;14.67;17.60;99992.52;4399625;80;28557;-88
2022/03/13 15:01:06;;;;;;;9.33;5.00;;;;;;;14.89;17.06;100004.47;4444896;80;28445;-88
2022/03/13 15:07:07;;;;;;;12.45;6.22;;;;;;;15.13;17.55;99992.25;4448697;80;28574;-83
2022/03/13 15:13:09;;;;;;;13.25;7.15;;;;;;;14.73;17.87;99997.85;4439145;80;28625;-83
2022/03/13 15:19:11;;;;;;;12.60;6.50;;;;;;;14.41;18.19;100013.58;4454672;80;28624;-84
2022/03/13 15:25:12;;;;;;;13.08;6.87;;;;;;;14.38;18.42;100009.98;4451715;78;28524;-84
2022/03/13 15:31:15;;;;;;;14.15;6.70;;;;;;;14.29;18.86;100018.43;4455798;78;28482;-84
2022/03/13 15:37:16;;;;;;;16.12;7.28;;;;;;;14.67;18.96;100010.95;4464488;78;28454;-82
2022/03/13 15:43:19;;;;;;;16.50;8.43;;;;;;;14.76;19.01;100012.29;4391333;79;28525;-84
2022/03/13 15:49:20;;;;;;;14.80;7.95;;;;;;;14.46;19.37;100025.86;4451579;78;28509;-83
2022/03/13 15:55:21;;;;;;;15.60;8.18;;;;;;;14.07;20.02;100026.23;4480882;78;28500;-82
2022/03/13 16:01:24;;;;;;;14.87;7.03;;;;;;;14.07;19.79;100023.53;4364911;80;28491;-84
2022/03/13 16:07:25;;;;;;;14.68;7.58;;;;;;;13.87;19.99;100027.33;4339003;81;28518;-84
2022/03/13 16:13:26;;;;;;;15.60;7.10;;;;;;;13.90;20.06;100032.30;4333463;82;28552;-80
2022/03/13 16:19:28;;;;;;;13.08;6.97;;;;;;;13.85;19.91;100041.61;4332027;80;28497;-80
2022/03/13 16:25:30;;;;;;;16.25;7.50;;;;;;;13.87;20.01;100042.75;4339439;82;28496;-82
2022/03/13 16:31:31;;;;;;;13.58;7.25;;;;;;;13.59;20.00;100045.48;4336709;80;28570;-81
2022/03/13 16:37:34;;;;;;;12.28;7.05;;;;;;;13.65;20.06;100047.28;4370642;80;28456;-84
2022/03/13 16:43:36;;;;;;;15.48;7.40;;;;;;;13.59;20.48;100046.83;4388829;80;28507;-82
2022/03/13 16:49:37;;;;;;;13.38;7.10;;;;;;;13.33;20.84;100052.27;4437531;78;28478;-83
2022/03/13 16:55:38;;;;;;;13.60;7.08;;;;;;;13.28;20.88;100061.59;4430073;78;28482;-82
2022/03/13 17:01:44;;;;;;;14.47;7.65;;;;;;;13.02;21.17;100066.19;4352579;80;28590;-85
2022/03/13 17:07:43;;;;;;;13.20;7.40;;;;;;;12.77;21.54;100075.13;4443069;78;28522;-82
2022/03/13 17:13:46;;;;;;;15.70;8.35;;;;;;;12.81;21.64;100074.17;4459726;78;28524;-83
2022/03/13 17:19:48;;;;;;;19.87;8.98;;;;;;;12.93;21.64;100076.95;4375551;81;28505;-82
2022/03/13 17:25:49;;;;;;;16.97;8.70;;;;;;;12.68;21.88;100094.80;4439858;78;28501;-84
2022/03/13 17:31:52;;;;;;;18.90;8.98;;;;;;;12.35;22.26;100097.73;4359039;81;28449;-85
2022/03/13 17:37:54;;;;;;;18.45;8.50;;;;;;;12.18;22.59;100104.13;4345543;80;28514;-83
2022/03/13 17:43:55;;;;;;;16.93;9.03;;;;;;;11.98;22.88;100109.09;4381954;80;28492;-79
2022/03/13 17:49:56;;;;;;;16.97;8.40;;;;;;;12.07;22.92;100107.00;4370649;80;28496;-85
2022/03/13 17:56:00;;;;;;;16.20;7.67;;;;;;;12.17;22.92;100106.52;4387171;79;28546;-81
2022/03/13 18:02:02;;;;;;;17.48;8.90;;;;;;;12.00;23.22;100107.00;4388152;81;28508;-81
2022/03/13 18:08:04;;;;;;;20.88;10.23;;;;;;;11.86;23.56;100108.92;4383571;80;28524;-81
2022/03/13 18:14:06;;;;;;;19.70;10.63;;;;;;;11.66;24.06;100115.70;4379861;80;28536;-82
2022/03/13 18:20:08;;;;;;;21.00;10.93;;;;;;;11.46;24.58;100122.50;4368866;80;28586;-82
2022/03/13 18:26:09;;;;;;;27.15;12.53;;;;;;;11.36;24.80;100121.06;4398355;80;28504;-81
2022/03/13 18:32:13;;;;;;;26.17;13.50;;;;;;;11.14;25.27;100129.38;4360960;81;28480;-81
2022/03/13 18:38:17;;;;;;;27.45;14.35;;;;;;;11.02;25.59;100137.23;4372449;81;28525;-81
2022/03/13 18:44:20;;;;;;;32.33;15.08;;;;;;;10.99;25.72;100144.92;4352806;80;28495;-82
2022/03/13 18:50:21;;;;;;;30.48;15.53;;;;;;;10.62;26.42;100151.18;4342901;81;28571;-81
2022/03/13 18:56:22;;;;;;;37.70;15.93;;;;;;;10.35;26.91;100153.25;4359248;81;28532;-80
2022/03/13 19:02:26;;;;;;;38.28;17.17;;;;;;;10.25;27.12;100153.62;4372351;81;28490;-81
2022/03/13 19:08:27;;;;;;;39.92;18.80;;;;;;;10.28;27.16;100168.02;4328589;80;28561;-80
2022/03/13 19:14:28;;;;;;;47.35;19.40;;;;;;;10.17;27.32;100161.35;4343663;82;28480;-81
2022/03/13 19:20:32;;;;;;;50.92;19.57;;;;;;;9.85;28.03;100160.19;4342187;82;28496;-80
2022/03/13 19:26:34;;;;;;;57.58;22.98;;;;;;;9.82;28.38;100162.75;4332878;82;28487;-80
2022/03/13 19:32:36;;;;;;;54.88;21.80;;;;;;;9.88;28.66;100167.84;4364293;80;28533;-80
2022/03/13 19:38:40;;;;;;;58.52;23.07;;;;;;;10.15;28.40;100166.10;4385113;80;28560;-82
2022/03/13 19:44:43;;;;;;;47.58;20.52;;;;;;;9.78;29.17;100168.72;4353780;81;28652;-77
2022/03/13 19:50:44;;;;;;;44.67;18.82;;;;;;;9.85;29.70;100166.91;4341717;82;28524;-81
2022/03/13 19:56:46;;;;;;;43.55;18.35;;;;;;;9.88;29.98;100171.87;4338444;82;28501;-84
2022/03/13 20:02:49;;;;;;;48.50;20.70;;;;;;;9.55;30.85;100168.48;4338097;81;28482;-84
2022/03/13 20:08:51;;;;;;;56.40;22.27;;;;;;;9.78;30.54;100163.34;4325462;81;28534;-86
2022/03/13 20:14:53;;;;;;;53.92;23.32;;;;;;;9.78;30.44;100168.19;4340536;81;28607;-85
2022/03/13 20:20:58;;;;;;;50.05;23.00;;;;;;;9.47;30.93;100170.78;4349365;80;28527;-76
2022/03/13 20:27:00;;;;;;;57.90;25.30;;;;;;;9.60;31.20;100172.23;4361693;80;28523;-79
2022/03/13 20:33:03;;;;;;;48.75;23.40;;;;;;;9.25;32.09;100169.48;4391789;80;28582;-76
2022/03/13 20:39:06;;;;;;;51.00;23.98;;;;;;;7.47;34.83;100184.76;4364605;80;28497;-80
2022/03/13 20:45:08;;;;;;;52.15;22.30;;;;;;;7.57;35.09;100180.47;4370729;80;28507;-76
2022/03/13 20:51:10;;;;;;;47.88;22.10;;;;;;;7.28;36.18;100183.94;4350335;80;28499;-77
2022/03/13 20:57:18;;;;;;;52.10;23.35;;;;;;;7.16;36.58;100191.05;4353463;80;28496;-74
2022/03/13 21:03:19;;;;;;;51.28;21.25;;;;;;;7.07;37.02;100192.95;4352911;80;28504;-75
2022/03/13 21:09:21;;;;;;;50.92;22.45;;;;;;;7.07;37.21;100199.63;4320795;80;43630;-75
2022/03/13 21:15:26;;;;;;;49.42;20.92;;;;;;;6.96;38.04;100198.23;4347849;80;28522;-74
2022/03/13 21:21:29;;;;;;;43.70;19.80;;;;;;;7.07;37.94;100204.16;4337275;80;28520;-75
2022/03/13 21:27:32;;;;;;;42.60;19.62;;;;;;;6.81;39.46;100208.86;4331781;80;28488;-76
2022/03/13 21:33:34;;;;;;;44.45;20.55;;;;;;;6.87;39.66;100205.98;4330697;80;28594;-76
2022/03/13 21:39:35;;;;;;;44.95;19.77;;;;;;;6.86;39.52;100196.79;4328419;80;28510;-75
2022/03/13 21:45:37;;;;;;;40.90;18.57;;;;;;;6.72;40.61;100201.90;4311000;81;28464;-75
2022/03/13 21:51:38;;;;;;;42.27;20.23;;;;;;;6.87;40.06;100213.16;4322083;80;28484;-75
2022/03/13 21:57:40;;;;;;;37.42;17.52;;;;;;;6.75;40.23;100204.21;4321670;80;28480;-75
2022/03/13 22:03:41;;;;;;;41.42;17.95;;;;;;;6.74;40.81;100209.75;4357941;80;44456;-76
2022/03/13 22:09:43;;;;;;;41.13;19.02;;;;;;;6.48;41.11;100207.73;4443466;79;44501;-76
2022/03/13 22:15:45;;;;;;;38.80;17.27;;;;;;;6.46;41.40;100206.23;4357690;81;44466;-76
2022/03/13 22:21:48;;;;;;;38.30;18.30;;;;;;;6.45;41.58;100209.91;4361489;81;28517;-74
2022/03/13 22:27:51;;;;;;;37.10;17.48;;;;;;;6.33;42.61;100216.14;4349183;81;28509;-75
2022/03/13 22:33:53;;;;;;;38.05;17.98;;;;;;;6.55;42.35;100226.03;4348987;81;44447;-77
2022/03/13 22:39:54;;;;;;;41.60;18.20;;;;;;;6.69;41.42;100221.78;4352094;81;28505;-77
2022/03/13 22:45:56;;;;;;;43.73;20.25;;;;;;;6.92;41.81;100220.15;4358847;81;43776;-77
2022/03/13 22:52:00;;;;;;;41.35;19.98;;;;;;;7.02;41.51;100214.55;4356208;80;28517;-78
2022/03/13 22:58:03;;;;;;;42.67;19.60;;;;;;;6.71;42.08;100222.95;4370724;81;43754;-76
2022/03/13 23:04:04;;;;;;;44.67;20.43;;;;;;;6.47;43.18;100225.26;4350189;81;43789;-76
2022/03/13 23:10:08;;;;;;;44.38;19.62;;;;;;;6.24;44.04;100232.71;4356533;81;43816;-76
2022/03/13 23:16:11;;;;;;;47.60;20.82;;;;;;;5.78;45.65;100227.98;4330609;81;43881;-75
2022/03/13 23:22:14;;;;;;;39.78;18.40;;;;;;;5.60;47.12;100220.19;4333138;82;44474;-78
2022/03/13 23:28:18;;;;;;;42.23;19.50;;;;;;;5.82;46.67;100221.28;4322500;82;43693;-76
2022/03/13 23:34:21;;;;;;;44.83;20.62;;;;;;;5.78;46.40;100215.48;4334346;82;43753;-76
2022/03/13 23:40:22;;;;;;;49.35;21.85;;;;;;;5.77;47.33;100211.64;4344864;81;44479;-77
2022/03/13 23:46:23;;;;;;;46.35;21.50;;;;;;;5.60;48.45;100207.66;4351867;80;43753;-77
2022/03/13 23:52:24;;;;;;;48.70;21.60;;;;;;;5.72;48.55;100210.30;4333399;82;44447;-76
2022/03/13 23:58:26;;;;;;;47.78;20.43;;;;;;;5.36;50.08;100220.03;4445692;78;43794;-77
